KWLD/WLD METAR and TAF weather

Enter ICAO airport designator
Station Type Date Time Source
KWLD METAR 2019/12/07 14:54 UTC NOAA

KWLD 071454Z AUTO 13003KT 10SM CLR M01/M03 A3032 RMK AO2 SLP278 T10061033 56004


Station Type Date Time Source
KWLD Decoded METAR 2019/12/07 14:54 UTC NOAA

STROTHER FIELD, KS, United States (KWLD) 37-10N 97-02W 350M
Dec 07, 2019 - 09:54 AM EST / 2019.12.07 1454 UTC
Wind: from the SE (130 degrees) at 3 MPH (3 KT):0
Visibility: 10 mile(s):0
Sky conditions: clear
Temperature: 30.9 F (-0.6 C)
Dew Point: 26.1 F (-3.3 C)
Relative Humidity: 81%
Pressure (altimeter): 30.32 in. Hg (1026 hPa)
Pressure tendency: 0.01 inches (0.4 hPa) lower than three hours ago
ob: KWLD 071454Z AUTO 13003KT 10SM CLR M01/M03 A3032 RMK AO2 SLP278 T10061033 56004
cycle: 15

Station Type Date Time Source
KWLD TAF UTC NOAA

Error!

Example: see airport list